Time;durP1;ratioP1;P1;durP2;ratioP2;P2;SDS_P1;SDS_P2;PMS_P1;PMS_P2;Temp;Humidity;BMP_temperature;BMP_pressure;BME280_temperature;BME280_humidity;BME280_pressure;Samples;Min_cycle;Max_cycle;Signal;HPM_P1;HPM_P2
2021/12/15 00:02:13;;;;;;;19.67;13.13;;;;;;;6.95;68.73;95227.28;5109809;28;20201;-76
2021/12/15 00:04:42;;;;;;;20.07;12.87;;;;;;;7.07;68.59;95246.81;5099799;28;20189;-75
2021/12/15 00:07:11;;;;;;;19.40;13.03;;;;;;;7.01;68.60;95240.41;5089232;28;20288;-75
2021/12/15 00:09:38;;;;;;;19.60;13.43;;;;;;;7.07;68.57;95251.91;5088705;28;20671;-77
2021/12/15 00:12:06;;;;;;;16.87;12.67;;;;;;;7.06;68.81;95257.09;5095244;28;20193;-75
2021/12/15 00:14:34;;;;;;;20.03;13.60;;;;;;;7.05;68.61;95256.28;5101272;28;20232;-77
2021/12/15 00:17:01;;;;;;;20.33;13.83;;;;;;;7.06;68.55;95262.19;5108469;28;20281;-75
2021/12/15 00:19:28;;;;;;;21.10;14.20;;;;;;;7.04;68.57;95264.84;5097618;28;20715;-75
2021/12/15 00:21:55;;;;;;;19.90;14.23;;;;;;;7.03;68.61;95269.09;5101983;28;20185;-76
2021/12/15 00:24:24;;;;;;;22.67;14.60;;;;;;;7.03;68.48;95275.91;5098103;28;20182;-75
2021/12/15 00:26:52;;;;;;;18.23;13.07;;;;;;;7.04;68.52;95273.28;5089889;28;20687;-75
2021/12/15 00:29:21;;;;;;;20.73;13.33;;;;;;;6.90;68.47;95250.47;5108622;28;20212;-75
2021/12/15 00:31:48;;;;;;;20.83;13.80;;;;;;;6.98;68.20;95266.03;5108522;28;20197;-74
2021/12/15 00:34:16;;;;;;;17.77;13.30;;;;;;;6.88;68.47;95251.50;5108692;28;20722;-75
2021/12/15 00:36:44;;;;;;;18.67;12.63;;;;;;;7.01;68.54;95273.47;5109146;28;20182;-75
2021/12/15 00:39:14;;;;;;;17.27;12.10;;;;;;;7.01;68.37;95276.00;5099169;28;20227;-76
2021/12/15 00:41:43;;;;;;;17.20;12.77;;;;;;;6.84;68.15;95245.81;5088850;28;20189;-75
2021/12/15 00:44:10;;;;;;;18.77;13.23;;;;;;;6.81;68.58;95232.47;5096764;28;20235;-75
2021/12/15 00:46:38;;;;;;;19.13;13.27;;;;;;;7.00;68.40;95269.31;5108382;28;20201;-75
2021/12/15 00:49:07;;;;;;;18.53;12.73;;;;;;;7.01;68.41;95270.13;5108667;28;20664;-74
2021/12/15 00:51:34;;;;;;;18.33;12.50;;;;;;;7.00;68.42;95266.78;5108480;28;20285;-76
2021/12/15 00:54:01;;;;;;;20.90;13.43;;;;;;;6.86;68.48;95243.16;5100818;28;20204;-76
2021/12/15 00:56:28;;;;;;;18.53;12.50;;;;;;;6.71;68.40;95217.03;5088089;28;20209;-75
2021/12/15 00:58:57;;;;;;;17.03;12.27;;;;;;;6.93;68.44;95255.38;5099677;28;20208;-75
2021/12/15 01:01:26;;;;;;;19.07;12.73;;;;;;;6.84;68.54;95233.09;5108415;28;20338;-75
2021/12/15 01:03:53;;;;;;;20.70;12.60;;;;;;;6.98;68.60;95249.97;5099600;28;20201;-76
2021/12/15 01:06:21;;;;;;;16.43;12.30;;;;;;;6.99;68.53;95254.97;5088221;28;20259;-76
2021/12/15 01:08:56;;;;;;;21.23;13.67;;;;;;;6.90;68.64;95237.75;5101416;28;20752;-76
2021/12/15 01:11:31;;;;;;;18.07;12.93;;;;;;;6.97;68.56;95244.06;5108817;28;20639;-76
2021/12/15 01:19:48;;;;;;;18.47;11.97;;;;;;;6.87;68.37;95237.19;5099445;28;20277;-76
2021/12/15 01:22:17;;;;;;;19.87;13.47;;;;;;;6.94;68.31;95249.34;5091927;28;20205;-78
2021/12/15 01:24:44;;;;;;;19.17;12.53;;;;;;;6.94;68.55;95249.34;5091984;28;20197;-77
2021/12/15 01:27:11;;;;;;;19.53;12.43;;;;;;;6.94;68.41;95256.97;5099033;28;20196;-77
2021/12/15 01:29:39;;;;;;;16.83;12.20;;;;;;;6.93;68.22;95257.91;5112170;28;20192;-75
2021/12/15 01:32:07;;;;;;;18.93;12.73;;;;;;;6.61;68.26;95205.84;5095162;28;20185;-75
2021/12/15 01:34:34;;;;;;;16.10;12.27;;;;;;;6.41;68.01;95172.41;5093155;28;20201;-75
2021/12/15 01:37:02;;;;;;;16.70;12.20;;;;;;;6.92;68.34;95261.38;5112057;28;20237;-76
2021/12/15 01:39:29;;;;;;;18.13;12.53;;;;;;;6.92;68.27;95268.19;5099900;28;20607;-75
2021/12/15 01:41:57;;;;;;;20.33;12.83;;;;;;;6.58;68.31;95203.50;5091255;28;20686;-74
2021/12/15 01:47:12;;;;;;;21.63;13.27;;;;;;;6.88;68.06;95251.50;5111710;28;20192;-75
2021/12/15 01:49:42;;;;;;;17.97;12.97;;;;;;;6.88;68.19;95252.31;5111376;28;20189;-75
2021/12/15 01:52:13;;;;;;;17.00;12.57;;;;;;;6.87;68.08;95248.16;5111662;28;20207;-75
2021/12/15 01:54:42;;;;;;;19.03;13.10;;;;;;;6.88;68.08;95251.50;5111729;28;20185;-76
2021/12/15 01:57:12;;;;;;;18.53;12.97;;;;;;;6.89;67.99;95253.94;5111363;28;20197;-76
2021/12/15 01:59:40;;;;;;;18.20;12.57;;;;;;;6.87;68.00;95255.78;5097141;28;20221;-76
2021/12/15 02:02:07;;;;;;;16.90;12.00;;;;;;;6.87;67.94;95252.44;5109119;28;20257;-74
2021/12/15 02:04:36;;;;;;;17.87;11.90;;;;;;;6.86;67.71;95245.69;5111065;28;20217;-76
2021/12/15 02:07:06;;;;;;;18.23;12.63;;;;;;;6.86;67.67;95253.31;5091538;28;20193;-75
2021/12/15 02:12:22;;;;;;;17.07;12.53;;;;;;;6.75;67.97;95243.88;5085095;28;20267;-77
2021/12/15 02:14:50;;;;;;;17.90;12.53;;;;;;;6.82;67.75;95267.97;5090911;28;20202;-75
2021/12/15 02:17:17;;;;;;;17.17;11.73;;;;;;;6.81;67.76;95263.78;5106512;28;20193;-75
2021/12/15 02:19:46;;;;;;;18.97;12.80;;;;;;;6.81;67.83;95266.34;5101275;28;20221;-75
2021/12/15 02:22:14;;;;;;;19.97;13.57;;;;;;;6.64;67.81;95236.94;5104290;28;20196;-76
2021/12/15 02:24:43;;;;;;;20.07;14.07;;;;;;;6.53;67.79;95221.59;5103944;28;20197;-76
2021/12/15 02:27:12;;;;;;;20.10;13.90;;;;;;;6.66;67.61;95241.94;5090539;28;20197;-76
2021/12/15 02:29:43;;;;;;;19.60;13.30;;;;;;;6.77;67.78;95263.19;5090895;28;20193;-75
2021/12/15 02:32:18;;;;;;;19.20;12.87;;;;;;;6.77;67.68;95265.72;5095670;28;20192;-75
2021/12/15 02:37:02;;;;;;;19.43;13.93;;;;;;;6.70;67.65;95251.81;5108909;28;20299;-75
2021/12/15 02:37:43;;;;;;;22.23;14.07;;;;;;;6.73;67.80;95259.22;5100185;28;20214;-75
2021/12/15 02:40:16;;;;;;;18.30;12.87;;;;;;;6.71;67.61;95258.50;5091880;28;20263;-74
2021/12/15 02:42:47;;;;;;;17.03;12.13;;;;;;;6.71;67.38;95267.88;5090830;28;20220;-76
2021/12/15 02:45:16;;;;;;;18.03;12.00;;;;;;;6.69;67.41;95262.91;5090358;28;20228;-75
2021/12/15 02:47:44;;;;;;;17.83;13.10;;;;;;;6.50;67.34;95230.22;5090463;28;20201;-74
2021/12/15 02:50:17;;;;;;;18.63;12.60;;;;;;;6.70;67.37;95261.16;5090482;28;20212;-75
2021/12/15 02:52:45;;;;;;;19.10;12.50;;;;;;;6.70;67.40;95258.63;5090109;28;20201;-75
2021/12/15 02:55:16;;;;;;;18.17;12.30;;;;;;;6.70;67.21;95261.16;5090356;28;20190;-74
2021/12/15 02:57:43;;;;;;;19.33;13.17;;;;;;;6.69;67.12;95270.50;5094245;28;20201;-75
2021/12/15 03:00:22;;;;;;;15.40;11.63;;;;;;;6.69;67.05;95264.59;5089720;28;20213;-75
2021/12/15 03:05:44;;;;;;;18.57;11.60;;;;;;;6.67;66.90;95259.63;5026370;28;20195;-75
2021/12/15 03:08:16;;;;;;;16.67;11.30;;;;;;;6.67;66.84;95261.34;5025531;28;20204;-75
2021/12/15 03:16:17;;;;;;;15.03;10.80;;;;;;;6.67;66.71;95267.25;5027242;28;20194;-75
2021/12/15 03:18:44;;;;;;;19.30;12.43;;;;;;;6.66;66.65;95270.72;5027173;28;20636;-75
2021/12/15 03:21:13;;;;;;;15.00;10.63;;;;;;;6.68;66.47;95273.94;5026530;28;20226;-75
2021/12/15 03:23:48;;;;;;;15.03;10.87;;;;;;;6.53;66.55;95244.47;5026511;28;20210;-75
2021/12/15 03:26:18;;;;;;;16.53;10.77;;;;;;;6.48;66.35;95239.69;5027611;28;20195;-75
2021/12/15 03:34:36;;;;;;;14.67;10.50;;;;;;;6.52;65.92;95248.75;5027019;28;20206;-74
2021/12/15 03:37:22;;;;;;;14.93;10.33;;;;;;;6.66;66.03;95270.72;5025372;28;20203;-75
2021/12/15 03:39:53;;;;;;;13.77;9.73;;;;;;;6.66;65.91;95272.44;5026394;28;20285;-77
2021/12/15 03:42:26;;;;;;;15.10;10.77;;;;;;;6.68;65.92;95275.69;5056179;28;20196;-74
2021/12/15 03:44:53;;;;;;;14.83;9.77;;;;;;;6.69;65.84;95274.75;5097538;28;20216;-74
2021/12/15 03:47:23;;;;;;;14.13;10.23;;;;;;;6.68;65.90;95273.13;5106981;28;20212;-74
2021/12/15 03:49:52;;;;;;;13.00;9.70;;;;;;;6.68;65.86;95273.94;5088951;28;20684;-75
2021/12/15 03:52:19;;;;;;;14.63;10.27;;;;;;;6.70;65.94;95278.94;5088745;28;20190;-75
2021/12/15 03:54:47;;;;;;;13.97;10.00;;;;;;;6.70;65.90;95279.75;5088869;28;20186;-75
2021/12/15 03:57:16;;;;;;;14.03;10.17;;;;;;;6.70;65.68;95271.31;5088859;28;20585;-75
2021/12/15 03:59:44;;;;;;;14.90;9.47;;;;;;;6.68;65.89;95270.59;5088909;28;20773;-74
2021/12/15 04:02:14;;;;;;;14.53;9.87;;;;;;;6.71;65.71;95275.50;5089959;28;20648;-77
2021/12/15 04:04:42;;;;;;;12.50;9.47;;;;;;;6.64;65.72;95267.44;5095688;28;20192;-76
2021/12/15 04:07:11;;;;;;;13.67;9.60;;;;;;;6.65;65.58;95283.50;5088321;28;20193;-75
2021/12/15 04:09:39;;;;;;;13.93;9.80;;;;;;;6.69;65.78;95283.22;5096792;28;20242;-74
2021/12/15 04:12:07;;;;;;;14.93;10.67;;;;;;;6.66;65.65;95285.94;5096058;28;20190;-77
2021/12/15 04:14:43;;;;;;;15.57;10.33;;;;;;;6.74;65.55;95301.53;5088647;28;20200;-74
2021/12/15 04:17:26;;;;;;;16.00;10.13;;;;;;;6.74;65.50;95308.34;5088711;28;20189;-74
2021/12/15 04:19:55;;;;;;;15.27;10.43;;;;;;;6.65;65.59;95294.50;5091455;28;20291;-75
2021/12/15 04:22:24;;;;;;;15.00;9.67;;;;;;;6.71;65.65;95303.44;5093878;28;20216;-75
2021/12/15 04:24:51;;;;;;;14.90;10.43;;;;;;;6.22;65.30;95226.13;5088494;28;20186;-75
2021/12/15 04:27:18;;;;;;;15.83;10.27;;;;;;;6.70;65.31;95312.00;5088501;28;20626;-75
2021/12/15 04:29:46;;;;;;;14.63;10.03;;;;;;;6.69;65.36;95312.88;5088628;28;20216;-75
2021/12/15 04:32:19;;;;;;;14.53;10.23;;;;;;;6.44;65.17;95270.47;5090469;28;20190;-75
2021/12/15 04:34:46;;;;;;;15.20;10.03;;;;;;;6.68;65.19;95311.25;5091242;28;20188;-75
2021/12/15 04:37:13;;;;;;;16.20;11.43;;;;;;;6.68;65.14;95314.59;5088349;28;20619;-75
2021/12/15 04:39:40;;;;;;;15.13;10.27;;;;;;;6.48;64.88;95284.59;5101816;28;20760;-75
2021/12/15 04:42:07;;;;;;;14.47;10.27;;;;;;;6.66;65.25;95313.91;5108822;28;20617;-75
2021/12/15 04:44:36;;;;;;;14.27;10.03;;;;;;;6.67;65.10;95319.81;5108484;28;20691;-76
2021/12/15 04:47:09;;;;;;;12.13;9.70;;;;;;;6.62;65.37;95314.22;5109170;28;20212;-76
2021/12/15 04:49:38;;;;;;;13.67;9.70;;;;;;;6.64;64.98;95312.38;5108668;28;20215;-76
2021/12/15 04:52:06;;;;;;;16.33;10.23;;;;;;;6.61;64.89;95308.31;5112731;28;20208;-75
2021/12/15 04:54:33;;;;;;;13.93;9.73;;;;;;;6.49;64.88;95299.75;5113339;28;20246;-76
2021/12/15 04:57:01;;;;;;;13.80;9.60;;;;;;;6.57;64.82;95311.97;5113466;28;20200;-76
2021/12/15 04:59:29;;;;;;;15.60;10.07;;;;;;;6.19;65.17;95251.69;5107168;28;20185;-75
2021/12/15 05:01:57;;;;;;;12.07;9.17;;;;;;;6.41;64.83;95289.25;5095558;28;20190;-74
2021/12/15 05:04:26;;;;;;;13.87;9.33;;;;;;;6.51;64.71;95315.69;5092691;28;20201;-75
2021/12/15 05:06:56;;;;;;;12.67;9.83;;;;;;;6.44;64.78;95306.03;5103741;28;20200;-76
2021/12/15 05:09:23;;;;;;;12.77;9.97;;;;;;;6.44;64.81;95306.03;5094751;28;20197;-76
2021/12/15 05:11:50;;;;;;;13.97;9.97;;;;;;;6.50;64.79;95308.97;5092608;28;20205;-76
2021/12/15 05:14:19;;;;;;;15.67;10.87;;;;;;;6.39;64.65;95293.63;5095038;28;20215;-76
2021/12/15 05:16:46;;;;;;;14.93;11.10;;;;;;;6.50;64.61;95310.72;5109221;28;20207;-75
2021/12/15 05:19:14;;;;;;;13.90;10.63;;;;;;;6.37;64.55;95294.63;5092119;28;20201;-76
2021/12/15 05:21:42;;;;;;;13.87;10.40;;;;;;;6.49;64.35;95322.59;5104622;28;20220;-75
2021/12/15 05:24:21;;;;;;;15.60;12.03;;;;;;;6.50;64.76;95323.41;5112116;28;20192;-75
2021/12/15 05:26:49;;;;;;;17.10;10.90;;;;;;;6.50;64.74;95331.03;5111934;28;20246;-76
2021/12/15 05:29:16;;;;;;;17.20;11.27;;;;;;;6.34;64.71;95303.25;5102052;28;20185;-76
2021/12/15 05:31:43;;;;;;;15.30;10.97;;;;;;;6.50;64.53;95328.50;5100750;28;20208;-75
2021/12/15 05:34:10;;;;;;;14.30;10.83;;;;;;;6.50;64.49;95333.56;5111977;28;20679;-75
2021/12/15 05:36:37;;;;;;;18.47;11.50;;;;;;;6.49;64.75;95335.31;5103867;28;20549;-75
2021/12/15 05:39:06;;;;;;;14.40;10.37;;;;;;;6.51;64.80;95330.13;5110672;28;20672;-76
2021/12/15 05:41:33;;;;;;;15.20;10.43;;;;;;;6.50;64.65;95329.31;5106492;28;20236;-79
2021/12/15 05:44:00;;;;;;;14.37;10.60;;;;;;;6.50;64.70;95329.31;5106804;28;20235;-77
2021/12/15 05:46:27;;;;;;;14.90;10.23;;;;;;;6.51;64.63;95322.50;5101980;28;20220;-73
2021/12/15 05:48:55;;;;;;;18.23;11.50;;;;;;;6.52;64.75;95344.47;5098837;28;20189;-78
2021/12/15 05:51:22;;;;;;;16.27;11.70;;;;;;;6.48;64.72;95332.88;5096600;28;20190;-77
2021/12/15 05:53:49;;;;;;;16.00;11.57;;;;;;;6.51;64.59;95335.19;5095440;28;20619;-78
2021/12/15 05:56:18;;;;;;;14.70;11.03;;;;;;;6.45;64.63;95318.63;5103244;28;20858;-76
2021/12/15 05:58:45;;;;;;;16.73;11.57;;;;;;;6.53;64.50;95335.94;5094653;28;20200;-77
2021/12/15 06:01:12;;;;;;;17.20;12.13;;;;;;;6.54;64.61;95327.41;5100764;28;20214;-75
2021/12/15 06:03:39;;;;;;;17.10;12.40;;;;;;;6.25;64.47;95284.31;5071118;28;20202;-75
2021/12/15 06:06:07;;;;;;;17.33;11.47;;;;;;;6.54;64.47;95327.41;5088870;28;20189;-76
2021/12/15 06:08:34;;;;;;;18.30;12.50;;;;;;;6.55;64.49;95336.63;5103683;28;20193;-75
2021/12/15 06:11:02;;;;;;;18.23;11.33;;;;;;;6.49;64.49;95322.59;5109169;28;20189;-77
2021/12/15 06:13:30;;;;;;;17.73;12.10;;;;;;;6.55;64.32;95331.56;5109249;28;20789;-76
2021/12/15 06:15:58;;;;;;;16.50;12.07;;;;;;;6.44;64.60;95327.16;5106056;28;20200;-75
2021/12/15 06:18:27;;;;;;;16.93;12.10;;;;;;;6.41;64.41;95321.47;5089272;28;20209;-76
2021/12/15 06:20:56;;;;;;;19.03;12.33;;;;;;;6.58;64.35;95349.16;5106494;28;20283;-74
2021/12/15 06:23:24;;;;;;;21.70;13.73;;;;;;;6.59;64.35;95337.25;5109071;28;20201;-75
2021/12/15 06:25:53;;;;;;;17.10;12.10;;;;;;;6.56;64.42;95338.25;5096639;28;20197;-76
2021/12/15 06:28:21;;;;;;;15.10;12.07;;;;;;;6.61;64.43;95343.91;5088477;28;20205;-75
2021/12/15 06:30:49;;;;;;;18.93;12.50;;;;;;;6.56;64.36;95338.25;5088688;28;20189;-75
2021/12/15 06:33:18;;;;;;;16.10;11.63;;;;;;;6.59;64.30;95344.88;5089738;28;20190;-80
2021/12/15 06:35:53;;;;;;;12.93;10.47;;;;;;;6.59;64.07;95339.81;5107479;28;20200;-75
2021/12/15 06:38:22;;;;;;;14.47;10.93;;;;;;;6.64;64.06;95346.22;5087697;28;20208;-74
2021/12/15 06:40:49;;;;;;;17.03;11.63;;;;;;;6.49;63.96;95324.34;5087834;28;20221;-75
2021/12/15 06:43:16;;;;;;;16.17;10.60;;;;;;;6.66;63.92;95352.03;5105420;28;20189;-75
2021/12/15 06:45:56;;;;;;;14.67;10.43;;;;;;;6.68;63.90;95341.75;5108491;28;20684;-72
2021/12/15 06:59:24;;;;;;;15.67;10.90;;;;;;;6.70;63.79;95361.09;5102322;28;20262;-73
2021/12/15 07:01:51;;;;;;;15.40;11.07;;;;;;;6.69;63.70;95354.38;5088440;28;20244;-73
2021/12/15 07:04:21;;;;;;;17.10;11.63;;;;;;;6.72;63.53;95360.97;5097844;28;20671;-73
2021/12/15 07:06:50;;;;;;;14.63;10.33;;;;;;;6.75;63.59;95365.88;5093247;28;20197;-73
2021/12/15 07:09:17;;;;;;;14.33;9.97;;;;;;;6.76;63.64;95360.69;5099414;28;20198;-72
2021/12/15 07:11:45;;;;;;;13.57;10.87;;;;;;;6.70;63.47;95355.19;5104925;28;20196;-74
2021/12/15 07:14:12;;;;;;;13.10;9.97;;;;;;;6.80;63.55;95361.31;5096977;28;20199;-73
2021/12/15 07:16:42;;;;;;;14.80;10.63;;;;;;;6.81;63.22;95374.84;5093000;28;20657;-74
2021/12/15 07:19:17;;;;;;;13.33;9.97;;;;;;;6.83;63.26;95367.94;5105141;28;20266;-76
2021/12/15 07:21:54;;;;;;;13.63;9.43;;;;;;;6.79;63.19;95369.84;5110436;27;20688;-72
2021/12/15 07:24:21;;;;;;;12.17;9.77;;;;;;;6.85;63.09;95374.53;5111580;27;20211;-73
2021/12/15 07:26:47;;;;;;;13.03;9.60;;;;;;;6.85;62.93;95379.63;5104822;28;20197;-76
2021/12/15 07:29:14;;;;;;;13.33;10.43;;;;;;;6.86;62.99;95386.31;5103636;28;20193;-73
2021/12/15 07:31:42;;;;;;;12.67;9.97;;;;;;;6.71;62.98;95357.63;5099479;28;20576;-73
2021/12/15 07:34:08;;;;;;;15.30;9.90;;;;;;;6.89;62.84;95373.44;5100024;28;20189;-72
2021/12/15 07:36:35;;;;;;;14.73;10.20;;;;;;;6.91;62.87;95376.72;5109033;28;20192;-73
2021/12/15 07:39:04;;;;;;;12.47;9.73;;;;;;;6.72;62.75;95350.81;5108210;28;20193;-73
2021/12/15 07:41:35;;;;;;;16.40;10.87;;;;;;;6.88;62.79;95376.88;5108673;28;20231;-72
2021/12/15 07:44:03;;;;;;;12.70;9.40;;;;;;;6.89;62.44;95372.63;5108554;28;20285;-73
2021/12/15 07:46:30;;;;;;;13.00;8.87;;;;;;;6.99;62.60;95394.81;5108959;28;20197;-72
2021/12/15 07:48:57;;;;;;;12.97;9.07;;;;;;;7.01;62.63;95407.44;5108761;28;20566;-74
2021/12/15 07:51:24;;;;;;;14.20;10.07;;;;;;;7.03;62.50;95398.78;5108887;28;20185;-75
2021/12/15 07:53:51;;;;;;;13.00;9.67;;;;;;;6.97;62.57;95390.75;5108691;28;20189;-72
2021/12/15 07:56:19;;;;;;;12.93;9.47;;;;;;;7.05;62.39;95408.88;5108843;28;20188;-74
2021/12/15 07:58:46;;;;;;;12.87;10.13;;;;;;;7.07;62.49;95414.66;5108581;28;20181;-74
2021/12/15 08:07:15;;;;;;;12.37;8.77;;;;;;;7.07;62.33;95404.47;5045375;28;20947;-73
2021/12/15 08:09:42;;;;;;;11.17;9.00;;;;;;;6.57;62.02;95331.47;5045283;28;20191;-75
2021/12/15 08:12:12;;;;;;;12.07;8.67;;;;;;;7.13;62.52;95418.56;5045143;28;20532;-76
2021/12/15 08:14:39;;;;;;;13.70;9.53;;;;;;;7.15;62.17;95416.72;5045272;28;20198;-74
2021/12/15 08:17:06;;;;;;;10.77;8.47;;;;;;;7.17;62.22;95425.06;5044648;28;20187;-74
2021/12/15 08:19:33;;;;;;;11.83;8.63;;;;;;;6.93;62.19;95395.19;5045048;28;20195;-73
2021/12/15 08:22:00;;;;;;;11.47;8.17;;;;;;;7.16;62.24;95429.31;5044776;28;20817;-73
2021/12/15 08:24:27;;;;;;;11.67;8.63;;;;;;;7.18;61.95;95432.59;5044592;28;20195;-73
2021/12/15 08:26:54;;;;;;;12.87;8.63;;;;;;;7.19;62.01;95438.50;5044767;28;20198;-73
2021/12/15 08:29:22;;;;;;;11.00;8.77;;;;;;;7.19;62.04;95441.03;5044872;28;20214;-74
2021/12/15 08:31:49;;;;;;;11.00;8.50;;;;;;;7.20;61.97;95435.03;5044715;28;20187;-74
2021/12/15 08:34:16;;;;;;;11.43;8.30;;;;;;;7.20;61.98;95432.50;5044964;28;20703;-77
2021/12/15 08:36:44;;;;;;;10.33;8.07;;;;;;;7.20;61.84;95435.03;5044936;28;20194;-75
2021/12/15 08:39:11;;;;;;;11.70;8.27;;;;;;;7.14;61.79;95432.91;5044443;28;20214;-75
2021/12/15 08:41:38;;;;;;;10.57;8.07;;;;;;;7.20;61.70;95446.03;5086804;28;20224;-76
2021/12/15 08:44:08;;;;;;;11.97;8.27;;;;;;;7.20;61.62;95442.66;5107942;28;20719;-75
2021/12/15 08:46:39;;;;;;;12.50;8.40;;;;;;;7.21;61.88;95445.13;5108041;28;20268;-74
2021/12/15 08:49:09;;;;;;;9.90;7.77;;;;;;;7.21;61.81;95450.22;5108159;28;20188;-75
2021/12/15 08:51:36;;;;;;;11.63;8.60;;;;;;;7.18;61.76;95440.22;5107416;28;20219;-76
2021/12/15 08:54:09;;;;;;;11.63;8.30;;;;;;;7.23;61.77;95448.38;5107512;28;20600;-75
2021/12/15 08:56:37;;;;;;;11.97;7.90;;;;;;;7.23;61.75;95450.91;5107659;28;20196;-74
2021/12/15 08:59:06;;;;;;;11.77;8.00;;;;;;;7.24;61.84;95452.53;5107681;28;20188;-75
2021/12/15 09:01:33;;;;;;;11.40;7.63;;;;;;;7.24;61.70;95454.28;5107949;28;20276;-76
2021/12/15 09:04:01;;;;;;;11.67;7.70;;;;;;;7.24;61.73;95454.28;5107378;28;20193;-74
2021/12/15 09:06:28;;;;;;;11.03;7.27;;;;;;;7.24;61.79;95460.16;5107837;28;20192;-75
2021/12/15 09:08:55;;;;;;;9.83;7.53;;;;;;;7.13;61.92;95436.34;5107311;28;20197;-74
2021/12/15 09:11:25;;;;;;;8.80;6.77;;;;;;;7.26;61.82;95460.91;5107806;28;20189;-75
2021/12/15 09:13:54;;;;;;;11.07;7.30;;;;;;;7.04;61.59;95418.22;5107283;28;20193;-74
2021/12/15 09:16:22;;;;;;;14.73;8.23;;;;;;;7.26;61.70;95453.28;5107528;28;20185;-75
2021/12/15 09:18:50;;;;;;;11.63;7.53;;;;;;;7.26;61.56;95457.56;5107299;28;20189;-74
2021/12/15 09:21:22;;;;;;;8.60;7.00;;;;;;;7.27;61.47;95454.09;5107328;28;20224;-75
2021/12/15 09:23:49;;;;;;;10.57;7.00;;;;;;;7.27;61.41;95451.53;5107700;28;20367;-74
2021/12/15 09:26:17;;;;;;;9.60;7.30;;;;;;;7.27;61.56;95457.44;5107648;28;20189;-74
2021/12/15 09:28:44;;;;;;;9.47;7.13;;;;;;;7.28;61.40;95453.16;5107502;28;20605;-73
2021/12/15 09:31:11;;;;;;;8.20;6.70;;;;;;;7.14;61.38;95421.00;5107319;28;20194;-73
2021/12/15 09:33:46;;;;;;;9.77;7.53;;;;;;;7.31;61.34;95449.63;5107319;28;20197;-78
2021/12/15 09:36:15;;;;;;;9.93;7.37;;;;;;;7.24;61.36;95432.19;5107597;28;20537;-75
2021/12/15 09:38:46;;;;;;;9.77;7.63;;;;;;;7.30;61.27;95448.81;5110772;28;20560;-76
2021/12/15 09:41:15;;;;;;;11.20;7.87;;;;;;;7.29;61.08;95445.41;5110641;28;20225;-75
2021/12/15 09:43:44;;;;;;;10.10;7.53;;;;;;;7.30;61.30;95448.81;5110567;28;20659;-76
2021/12/15 09:46:32;;;;;;;7.80;6.37;;;;;;;7.27;61.48;95442.19;5111433;28;20199;-75
2021/12/15 09:57:21;;;;;;;8.93;7.27;;;;;;;7.31;61.38;95449.63;5110473;28;20571;-71
2021/12/15 10:02:46;;;;;;;8.70;6.83;;;;;;;7.25;61.44;95438.94;5110357;28;20304;-74
2021/12/15 10:05:28;;;;;;;11.80;7.70;;;;;;;7.34;61.45;95447.69;5110546;28;20290;-72
2021/12/15 10:10:49;;;;;;;10.13;7.47;;;;;;;7.27;61.36;95433.72;5110625;28;20569;-70
2021/12/15 10:19:18;;;;;;;9.83;7.80;;;;;;;7.44;61.24;95432.63;5110398;28;20203;-79
2021/12/15 10:22:01;;;;;;;11.00;8.53;;;;;;;7.46;61.16;95430.78;5110274;28;20307;-78
2021/12/15 10:24:31;;;;;;;10.97;7.73;;;;;;;6.97;61.23;95348.31;5110315;28;20192;-74
2021/12/15 10:27:04;;;;;;;8.73;7.30;;;;;;;7.52;61.13;95426.13;5109830;28;20714;-76
2021/12/15 10:29:31;;;;;;;8.73;7.07;;;;;;;7.44;61.04;95404.66;5110616;28;20191;-77
2021/12/15 10:32:00;;;;;;;12.23;8.60;;;;;;;7.56;60.90;95419.13;5109993;28;20188;-76
2021/12/15 10:34:28;;;;;;;11.73;7.70;;;;;;;7.69;60.84;95421.66;5110393;28;20185;-75
2021/12/15 10:36:55;;;;;;;11.53;7.97;;;;;;;7.73;60.86;95412.91;5110464;28;20250;-75
2021/12/15 10:39:22;;;;;;;11.73;8.27;;;;;;;7.72;60.67;95409.53;5109590;28;20192;-78
2021/12/15 10:41:53;;;;;;;10.03;8.27;;;;;;;7.81;60.60;95408.09;5110293;28;20652;-76
2021/12/15 10:44:24;;;;;;;11.60;8.43;;;;;;;7.84;60.53;95404.53;5109807;28;20225;-77
2021/12/15 10:46:53;;;;;;;10.60;7.97;;;;;;;7.88;60.43;95408.50;5105584;28;20190;-72
2021/12/15 10:49:24;;;;;;;12.73;9.50;;;;;;;7.88;60.39;95403.41;5090780;28;20671;-79
2021/12/15 10:51:54;;;;;;;10.40;8.93;;;;;;;7.90;60.46;95404.94;5092360;28;20202;-75
2021/12/15 10:54:25;;;;;;;12.13;8.73;;;;;;;7.94;60.27;95401.25;5091222;28;20190;-75
2021/12/15 10:56:55;;;;;;;10.20;8.83;;;;;;;7.97;60.38;95408.69;5091999;28;20194;-74
2021/12/15 10:59:25;;;;;;;10.47;8.43;;;;;;;7.95;60.32;95399.53;5091326;28;20193;-75
2021/12/15 11:01:56;;;;;;;12.10;9.07;;;;;;;7.92;60.33;95397.19;5091747;28;20217;-74
2021/12/15 11:04:30;;;;;;;11.67;8.63;;;;;;;7.99;60.38;95409.41;5091708;28;20568;-78
2021/12/15 11:07:22;;;;;;;11.60;8.30;;;;;;;7.99;60.42;95403.50;5091588;28;20256;-75
2021/12/15 11:09:53;;;;;;;11.10;9.17;;;;;;;7.97;60.48;95405.34;5091180;28;20682;-73
2021/12/15 11:12:23;;;;;;;14.10;9.40;;;;;;;7.97;60.52;95407.88;5091309;28;20200;-73
2021/12/15 11:14:54;;;;;;;11.50;9.17;;;;;;;7.95;60.56;95397.00;5091443;28;20185;-75
2021/12/15 11:17:24;;;;;;;11.63;9.30;;;;;;;7.95;60.66;95402.91;5089142;28;20216;-73
2021/12/15 11:20:06;;;;;;;12.20;8.93;;;;;;;7.99;60.83;95398.41;5091351;28;20574;-71
2021/12/15 11:22:44;;;;;;;9.83;8.83;;;;;;;7.98;60.73;95392.47;5091447;28;20236;-73
2021/12/15 11:25:15;;;;;;;10.77;8.60;;;;;;;8.00;60.60;95400.03;5091250;28;20277;-72
2021/12/15 11:27:42;;;;;;;12.63;8.93;;;;;;;7.98;60.65;95389.13;5091689;28;20189;-74
2021/12/15 11:30:15;;;;;;;14.87;9.37;;;;;;;7.98;60.64;95394.22;5091066;28;20281;-72
2021/12/15 11:32:46;;;;;;;12.87;8.70;;;;;;;7.99;60.69;95399.22;5091282;28;20326;-74
2021/12/15 11:35:17;;;;;;;12.70;8.73;;;;;;;7.99;60.73;95389.03;5091556;28;20243;-75
2021/12/15 11:37:56;;;;;;;13.77;9.03;;;;;;;8.01;60.76;95394.00;5091439;28;20189;-73
2021/12/15 11:40:30;;;;;;;15.93;9.10;;;;;;;8.04;60.81;95388.72;5090883;28;20831;-71
2021/12/15 11:42:57;;;;;;;13.50;10.03;;;;;;;8.07;60.65;95382.59;5090334;28;20229;-74
2021/12/15 11:45:28;;;;;;;12.03;9.50;;;;;;;8.09;60.88;95375.66;5090648;28;20745;-72
2021/12/15 11:48:12;;;;;;;10.83;8.73;;;;;;;8.06;60.77;95371.59;5090792;28;20194;-72
2021/12/15 11:50:42;;;;;;;12.67;9.07;;;;;;;8.14;60.66;95381.25;5090924;28;20201;-73
2021/12/15 11:53:14;;;;;;;12.67;9.37;;;;;;;8.17;60.59;95389.50;5091754;28;20641;-73
2021/12/15 11:55:41;;;;;;;13.47;9.20;;;;;;;8.16;60.51;95381.94;5090706;28;20197;-73
2021/12/15 11:58:08;;;;;;;10.93;8.07;;;;;;;8.19;60.56;95384.28;5091027;28;20664;-74
2021/12/15 12:00:37;;;;;;;11.60;9.13;;;;;;;8.25;60.61;95389.78;5090828;28;20186;-73
2021/12/15 12:03:04;;;;;;;11.87;8.93;;;;;;;8.23;60.72;95378.88;5091013;28;20722;-75
2021/12/15 12:05:34;;;;;;;12.10;8.90;;;;;;;8.20;60.51;95365.53;5091582;28;20182;-74
2021/12/15 12:08:04;;;;;;;14.60;9.47;;;;;;;8.30;60.33;95381.81;5089943;28;20953;-75
2021/12/15 12:10:43;;;;;;;11.23;8.63;;;;;;;8.27;60.51;95379.47;5090430;28;20196;-74
2021/12/15 12:13:15;;;;;;;9.73;8.40;;;;;;;8.29;60.56;95387.84;5090697;28;20221;-74
2021/12/15 12:15:46;;;;;;;11.73;8.73;;;;;;;8.27;60.48;95387.13;5090533;28;20707;-73
2021/12/15 12:18:17;;;;;;;9.43;8.43;;;;;;;8.24;60.30;95387.31;5090860;28;20190;-75
2021/12/15 12:20:46;;;;;;;12.10;8.60;;;;;;;8.22;60.00;95384.09;5090346;28;20201;-73
2021/12/15 12:23:15;;;;;;;10.63;8.10;;;;;;;8.20;60.34;95393.56;5091252;28;20225;-74
2021/12/15 12:25:46;;;;;;;11.17;8.73;;;;;;;8.18;60.39;95377.56;5090676;28;20197;-75
2021/12/15 12:28:17;;;;;;;11.70;8.57;;;;;;;8.18;60.33;95382.66;5090800;28;20553;-75
2021/12/15 12:30:48;;;;;;;11.43;8.70;;;;;;;8.17;60.61;95378.50;5088808;28;20629;-73
2021/12/15 12:33:16;;;;;;;12.30;9.03;;;;;;;8.16;60.58;95372.59;5088830;28;20205;-76
2021/12/15 12:35:46;;;;;;;12.70;9.20;;;;;;;8.14;60.56;95371.06;5089818;28;20189;-74
2021/12/15 12:38:15;;;;;;;13.33;9.63;;;;;;;8.13;60.61;95383.00;5088358;28;20695;-75
2021/12/15 12:40:50;;;;;;;14.50;10.23;;;;;;;8.12;60.64;95385.63;5088663;28;20277;-75
2021/12/15 12:43:24;;;;;;;13.77;10.47;;;;;;;8.11;60.52;95391.66;5091952;28;20208;-75